Time;durP1;ratioP1;P1;durP2;ratioP2;P2;SDS_P1;SDS_P2;PMS_P1;PMS_P2;Temp;Humidity;BMP_temperature;BMP_pressure;BME280_temperature;BME280_humidity;BME280_pressure;Samples;Min_cycle;Max_cycle;Signal;HPM_P1;HPM_P2
2023/07/24 00:00:45;;;;;;;5.07;2.30;;;19.30;98.50;;;;;;5095248;28;20112;-77
2023/07/24 00:03:11;;;;;;;3.58;2.10;;;19.40;98.40;;;;;;5095932;28;20035;-77
2023/07/24 00:05:36;;;;;;;4.03;2.30;;;19.30;98.30;;;;;;5095201;28;20037;-77
2023/07/24 00:08:02;;;;;;;4.63;2.10;;;19.40;98.40;;;;;;5096015;28;20040;-77
2023/07/24 00:10:28;;;;;;;2.80;2.05;;;19.40;98.30;;;;;;5095853;28;20131;-77
2023/07/24 00:12:54;;;;;;;3.47;1.90;;;19.40;98.30;;;;;;5094892;28;20040;-77
2023/07/24 00:15:19;;;;;;;4.10;1.95;;;19.40;98.20;;;;;;5094788;28;20089;-78
2023/07/24 00:17:45;;;;;;;3.58;2.40;;;19.40;98.30;;;;;;5095662;28;20028;-78
2023/07/24 00:20:11;;;;;;;4.40;2.30;;;19.40;98.30;;;;;;5094598;28;20028;-77
2023/07/24 00:22:37;;;;;;;3.75;2.25;;;19.40;98.10;;;;;;5094877;28;20035;-77
2023/07/24 00:25:02;;;;;;;3.38;2.25;;;19.40;98.20;;;;;;5094730;28;20032;-77
2023/07/24 00:27:28;;;;;;;5.50;2.63;;;19.30;98.30;;;;;;5077787;28;20024;-77
2023/07/24 00:29:53;;;;;;;4.35;2.60;;;19.40;98.10;;;;;;5077711;28;20518;-78
2023/07/24 00:32:19;;;;;;;4.70;2.33;;;19.40;98.20;;;;;;5094462;28;20029;-77
2023/07/24 00:34:45;;;;;;;4.43;2.78;;;19.40;98.20;;;;;;5095256;28;20092;-77
2023/07/24 00:37:10;;;;;;;4.78;2.50;;;19.40;98.20;;;;;;5094368;28;20046;-78
2023/07/24 00:39:36;;;;;;;4.57;2.75;;;19.40;98.10;;;;;;5094242;28;20027;-77
2023/07/24 00:42:02;;;;;;;4.28;2.20;;;19.40;97.80;;;;;;5095173;28;20103;-77
2023/07/24 00:44:27;;;;;;;4.85;2.28;;;19.40;97.90;;;;;;5094304;28;20032;-78
2023/07/24 00:46:54;;;;;;;5.78;2.85;;;19.40;97.90;;;;;;5094262;28;20038;-77
2023/07/24 00:49:20;;;;;;;7.93;2.72;;;19.40;97.90;;;;;;5093977;28;20464;-78
2023/07/24 00:51:46;;;;;;;4.53;2.22;;;19.40;97.80;;;;;;5077236;28;20028;-77
2023/07/24 00:54:16;;;;;;;5.03;2.65;;;19.30;97.90;;;;;;5094897;28;20040;-77
2023/07/24 00:56:43;;;;;;;5.45;2.20;;;19.40;98.00;;;;;;5093901;28;20076;-77
2023/07/24 00:59:09;;;;;;;7.07;2.30;;;19.30;97.90;;;;;;5093849;28;20053;-77
2023/07/24 01:01:36;;;;;;;4.63;2.38;;;19.30;98.20;;;;;;5094951;28;20055;-77
2023/07/24 01:04:04;;;;;;;8.95;2.65;;;19.30;97.80;;;;;;5094773;28;20379;-77
2023/07/24 01:06:30;;;;;;;7.22;2.38;;;19.30;97.90;;;;;;5094705;28;20020;-77
2023/07/24 01:08:56;;;;;;;5.68;2.50;;;19.30;97.90;;;;;;5076954;28;20056;-77
2023/07/24 01:11:28;;;;;;;4.93;2.50;;;19.30;97.80;;;;;;5076952;28;20020;-77
2023/07/24 01:14:04;;;;;;;4.95;2.58;;;19.30;97.80;;;;;;5094718;28;20024;-78
2023/07/24 01:16:37;;;;;;;5.40;3.00;;;19.30;97.70;;;;;;5094520;28;20050;-77
2023/07/24 01:19:07;;;;;;;8.18;3.78;;;19.20;97.80;;;;;;5076824;28;20031;-78
2023/07/24 01:21:40;;;;;;;8.98;3.90;;;19.30;97.80;;;;;;5094455;28;20025;-77
2023/07/24 01:24:31;;;;;;;6.93;3.30;;;19.20;97.80;;;;;;5094407;28;20021;-78
2023/07/24 01:26:57;;;;;;;7.75;3.70;;;19.20;97.70;;;;;;5094325;28;20091;-78
2023/07/24 01:29:23;;;;;;;10.85;6.15;;;19.30;97.70;;;;;;5076595;28;20091;-77
2023/07/24 01:31:48;;;;;;;7.57;4.97;;;19.30;97.60;;;;;;5093292;28;20028;-77
2023/07/24 01:34:14;;;;;;;9.70;5.15;;;19.20;97.60;;;;;;5093034;28;20040;-77
2023/07/24 01:36:40;;;;;;;9.15;5.28;;;19.30;97.70;;;;;;5093172;28;20033;-77
2023/07/24 01:39:06;;;;;;;8.45;4.97;;;19.20;97.70;;;;;;5076480;28;20047;-77
2023/07/24 01:41:32;;;;;;;6.80;4.22;;;19.30;97.70;;;;;;5093128;28;20395;-77
2023/07/24 01:43:59;;;;;;;9.05;3.88;;;19.30;97.80;;;;;;5093960;28;20040;-77
2023/07/24 01:46:25;;;;;;;8.38;3.50;;;19.30;97.80;;;;;;5092947;28;20032;-77
2023/07/24 01:48:52;;;;;;;6.35;3.50;;;19.30;97.90;;;;;;5092954;28;20084;-77
2023/07/24 01:51:18;;;;;;;6.38;2.90;;;19.30;97.90;;;;;;5092908;28;20029;-77
2023/07/24 01:53:43;;;;;;;6.43;3.55;;;19.30;97.90;;;;;;5093765;28;20029;-77
2023/07/24 01:56:09;;;;;;;6.60;3.00;;;19.30;98.10;;;;;;5092778;28;20565;-77
2023/07/24 01:58:34;;;;;;;5.43;3.13;;;19.20;98.10;;;;;;5092708;28;20033;-78
2023/07/24 02:01:00;;;;;;;6.40;3.08;;;19.30;98.10;;;;;;5076057;28;20511;-77
2023/07/24 02:03:26;;;;;;;5.50;3.03;;;19.30;98.00;;;;;;5093684;28;20048;-77
2023/07/24 02:05:51;;;;;;;6.47;3.20;;;19.30;98.10;;;;;;5092685;28;20036;-77
2023/07/24 02:08:17;;;;;;;6.78;3.08;;;19.30;98.20;;;;;;5093612;28;20047;-77
2023/07/24 02:10:43;;;;;;;6.15;3.30;;;19.30;98.20;;;;;;5092560;28;20052;-77
2023/07/24 02:13:09;;;;;;;6.63;3.45;;;19.30;98.30;;;;;;5093482;28;20088;-77
2023/07/24 02:15:36;;;;;;;6.07;3.50;;;19.30;98.20;;;;;;5092530;28;20048;-77
2023/07/24 02:18:01;;;;;;;5.63;3.22;;;19.40;98.10;;;;;;5093502;28;20028;-77
2023/07/24 02:20:27;;;;;;;7.63;3.55;;;19.40;98.20;;;;;;5092563;28;20047;-77
2023/07/24 02:22:52;;;;;;;7.75;3.67;;;19.30;98.30;;;;;;5092504;28;20387;-77
2023/07/24 02:25:18;;;;;;;7.13;3.28;;;19.30;98.20;;;;;;5075667;28;20040;-77
2023/07/24 02:27:44;;;;;;;6.35;3.05;;;19.30;98.30;;;;;;5092447;28;20082;-77
2023/07/24 02:30:10;;;;;;;5.80;2.95;;;19.30;98.40;;;;;;5075635;28;20032;-78
2023/07/24 02:32:35;;;;;;;5.95;2.92;;;19.30;98.40;;;;;;5075569;28;20040;-77
2023/07/24 02:35:01;;;;;;;7.03;3.13;;;19.30;98.30;;;;;;5093241;28;20099;-77
2023/07/24 02:37:26;;;;;;;5.43;2.75;;;19.30;98.30;;;;;;5092317;28;20096;-77
2023/07/24 02:39:53;;;;;;;7.70;3.13;;;19.30;98.40;;;;;;5092370;28;20056;-77
2023/07/24 02:42:18;;;;;;;4.60;2.95;;;19.30;98.50;;;;;;5092224;28;20062;-78
2023/07/24 02:44:44;;;;;;;5.30;2.90;;;19.30;98.40;;;;;;5076547;28;20059;-78
2023/07/24 02:47:10;;;;;;;5.32;3.13;;;19.30;98.50;;;;;;5096518;28;20032;-77
2023/07/24 02:49:35;;;;;;;6.10;3.03;;;19.30;98.40;;;;;;5096505;28;20032;-78
2023/07/24 02:52:01;;;;;;;4.95;2.45;;;19.30;98.50;;;;;;5097326;28;20067;-77
2023/07/24 02:54:27;;;;;;;6.00;2.72;;;19.30;98.50;;;;;;5096328;28;20032;-77
2023/07/24 02:56:52;;;;;;;5.55;2.60;;;19.30;98.60;;;;;;5097366;28;20380;-78
2023/07/24 02:59:18;;;;;;;4.30;2.40;;;19.30;98.60;;;;;;5096094;28;20041;-77
2023/07/24 03:01:44;;;;;;;5.80;2.92;;;19.30;99.00;;;;;;5097123;28;20052;-78
2023/07/24 03:04:09;;;;;;;4.90;2.50;;;19.30;98.60;;;;;;5097092;28;20032;-77
2023/07/24 03:06:35;;;;;;;4.55;2.75;;;19.30;98.60;;;;;;5096158;28;20050;-78
2023/07/24 03:09:01;;;;;;;6.28;2.78;;;19.30;98.50;;;;;;5096020;28;20036;-78
2023/07/24 03:11:27;;;;;;;6.15;3.25;;;19.40;98.90;;;;;;5096040;28;20033;-77
2023/07/24 03:13:52;;;;;;;6.25;3.20;;;19.40;98.40;;;;;;5095916;28;20043;-78
2023/07/24 03:16:19;;;;;;;5.95;2.88;;;19.40;98.40;;;;;;5079094;28;20103;-78
2023/07/24 03:18:45;;;;;;;6.03;3.10;;;19.30;98.50;;;;;;5079255;28;20046;-78
2023/07/24 03:21:10;;;;;;;6.97;3.17;;;19.30;98.60;;;;;;5096761;28;20052;-77
2023/07/24 03:23:36;;;;;;;4.53;2.60;;;19.20;98.50;;;;;;5095720;28;20036;-78
2023/07/24 03:26:02;;;;;;;4.57;2.50;;;19.20;98.40;;;;;;5095699;28;20029;-78
2023/07/24 03:28:27;;;;;;;3.72;2.35;;;19.10;98.40;;;;;;5078890;28;20081;-77
2023/07/24 03:30:54;;;;;;;5.70;2.30;;;19.10;98.40;;;;;;5079031;28;20025;-77
2023/07/24 03:33:20;;;;;;;3.83;2.35;;;19.10;98.50;;;;;;5078676;28;20063;-77
2023/07/24 03:35:49;;;;;;;3.97;2.33;;;19.10;98.50;;;;;;5096462;28;20046;-78
2023/07/24 03:38:14;;;;;;;5.32;2.55;;;19.10;98.60;;;;;;5096462;28;20033;-78
2023/07/24 03:40:40;;;;;;;5.05;2.38;;;19.10;98.60;;;;;;5078715;28;20048;-78
2023/07/24 03:43:05;;;;;;;3.97;2.50;;;19.10;98.50;;;;;;5095487;28;20033;-79
2023/07/24 03:45:31;;;;;;;3.70;2.05;;;19.10;98.80;;;;;;5078700;28;20029;-78
2023/07/24 03:47:57;;;;;;;3.17;1.98;;;19.10;98.30;;;;;;5095345;28;20056;-77
2023/07/24 03:50:22;;;;;;;4.80;2.40;;;19.10;98.20;;;;;;5078508;28;20060;-78
2023/07/24 03:52:48;;;;;;;3.72;2.38;;;19.10;98.10;;;;;;5078397;28;20097;-79
2023/07/24 03:55:14;;;;;;;4.90;2.67;;;19.20;98.10;;;;;;5078451;28;20032;-77
2023/07/24 03:57:39;;;;;;;3.80;2.10;;;19.20;98.10;;;;;;5093841;28;20048;-78
2023/07/24 04:00:06;;;;;;;4.07;2.15;;;19.10;97.40;;;;;;5095012;28;20028;-79
2023/07/24 04:02:31;;;;;;;3.50;1.90;;;19.00;97.30;;;;;;5095075;28;20041;-78
2023/07/24 04:04:57;;;;;;;2.85;1.98;;;19.00;97.00;;;;;;5095005;28;20028;-78
2023/07/24 04:07:23;;;;;;;4.53;2.00;;;19.00;96.80;;;;;;5094996;28;20029;-79
2023/07/24 04:09:48;;;;;;;3.72;1.98;;;19.00;96.60;;;;;;5095871;28;20059;-79
2023/07/24 04:12:14;;;;;;;2.90;1.67;;;19.00;96.40;;;;;;5094875;28;20032;-79
2023/07/24 04:14:40;;;;;;;4.18;2.30;;;18.90;96.10;;;;;;5078040;28;20028;-78
2023/07/24 04:17:05;;;;;;;4.78;2.10;;;18.90;96.10;;;;;;5094824;28;20074;-78
2023/07/24 04:19:31;;;;;;;3.88;1.95;;;18.90;96.10;;;;;;5077980;28;20027;-78
2023/07/24 04:21:56;;;;;;;3.28;1.80;;;18.80;96.10;;;;;;5095657;28;20032;-78
2023/07/24 04:24:22;;;;;;;3.38;1.83;;;18.70;96.10;;;;;;5094641;28;20035;-78
2023/07/24 04:26:48;;;;;;;3.78;2.10;;;18.70;96.30;;;;;;5094533;28;20032;-78
2023/07/24 04:29:14;;;;;;;3.40;2.00;;;18.70;96.30;;;;;;5077807;28;20048;-78
2023/07/24 04:31:39;;;;;;;4.80;2.65;;;18.60;96.20;;;;;;5077887;28;20029;-78
2023/07/24 04:34:05;;;;;;;4.10;1.85;;;18.50;96.50;;;;;;5094338;28;20032;-78
2023/07/24 04:36:30;;;;;;;4.03;2.05;;;18.50;96.60;;;;;;5095392;28;20028;-78
2023/07/24 04:38:56;;;;;;;3.97;2.17;;;18.50;96.70;;;;;;5095366;28;20024;-79
2023/07/24 04:41:22;;;;;;;5.40;2.55;;;18.40;96.80;;;;;;5077521;28;20025;-78
2023/07/24 04:43:47;;;;;;;5.38;2.58;;;18.40;96.90;;;;;;5077503;28;20036;-78
2023/07/24 04:46:13;;;;;;;5.68;2.63;;;18.40;96.80;;;;;;5077431;28;20029;-78
2023/07/24 04:48:38;;;;;;;5.05;2.80;;;18.40;96.90;;;;;;5094329;28;20059;-79
2023/07/24 04:51:04;;;;;;;3.90;2.38;;;18.40;96.90;;;;;;5077444;28;20043;-79
2023/07/24 04:53:30;;;;;;;3.67;2.60;;;18.40;96.90;;;;;;5094931;28;20388;-80
2023/07/24 04:55:55;;;;;;;4.07;2.90;;;18.40;96.90;;;;;;5077318;28;20017;-79
2023/07/24 04:58:21;;;;;;;5.75;2.90;;;18.40;96.90;;;;;;5077056;28;20049;-80
2023/07/24 05:00:47;;;;;;;4.07;2.80;;;18.40;96.90;;;;;;5093941;28;20021;-79
2023/07/24 05:03:12;;;;;;;4.75;2.80;;;18.40;96.90;;;;;;5094004;28;20031;-79
2023/07/24 05:05:38;;;;;;;3.92;2.50;;;18.50;96.90;;;;;;5093912;28;20468;-79
2023/07/24 05:08:04;;;;;;;5.72;3.00;;;18.40;96.90;;;;;;5093577;28;20048;-79
2023/07/24 05:10:35;;;;;;;4.78;2.83;;;18.40;97.00;;;;;;5093708;28;20024;-79
2023/07/24 05:13:01;;;;;;;4.88;2.47;;;18.40;97.00;;;;;;5094563;28;20063;-78
2023/07/24 05:15:26;;;;;;;4.55;2.65;;;18.40;97.10;;;;;;5093524;28;20426;-78
2023/07/24 05:17:52;;;;;;;8.20;3.10;;;18.40;97.10;;;;;;5094538;28;20051;-78
2023/07/24 05:20:17;;;;;;;4.38;2.92;;;18.40;97.10;;;;;;5093534;28;20032;-79
2023/07/24 05:22:43;;;;;;;5.57;3.05;;;18.40;97.10;;;;;;5094477;28;20032;-78
2023/07/24 05:25:09;;;;;;;5.03;2.83;;;18.40;97.20;;;;;;5094404;28;20032;-78
2023/07/24 05:27:35;;;;;;;5.13;2.72;;;18.50;97.20;;;;;;5094411;28;20028;-78
2023/07/24 05:30:01;;;;;;;6.07;3.20;;;18.50;97.20;;;;;;5093408;28;20059;-78
2023/07/24 05:32:26;;;;;;;7.60;3.20;;;18.40;97.20;;;;;;5094219;28;20025;-78
2023/07/24 05:34:52;;;;;;;8.13;3.72;;;18.30;97.50;;;;;;5093165;28;20118;-77
2023/07/24 05:37:17;;;;;;;6.15;3.55;;;18.30;97.40;;;;;;5093061;28;20025;-78
2023/07/24 05:39:43;;;;;;;5.82;3.40;;;18.30;97.40;;;;;;5094130;28;20032;-79
2023/07/24 05:42:10;;;;;;;6.03;3.40;;;18.30;97.20;;;;;;5094046;28;20029;-80
2023/07/24 05:44:37;;;;;;;5.60;3.53;;;18.30;97.40;;;;;;5093104;28;20032;-79
2023/07/24 05:47:02;;;;;;;7.22;3.53;;;18.30;97.20;;;;;;5076593;28;20070;-77
2023/07/24 05:49:28;;;;;;;6.13;3.65;;;18.20;97.10;;;;;;5093892;28;20029;-78
2023/07/24 05:51:54;;;;;;;7.63;3.80;;;18.30;97.30;;;;;;5092858;28;20032;-78
2023/07/24 05:54:19;;;;;;;5.43;3.20;;;18.30;97.30;;;;;;5093797;28;20032;-78
2023/07/24 05:56:45;;;;;;;7.32;3.67;;;18.30;97.30;;;;;;5076138;28;20017;-79
2023/07/24 05:59:10;;;;;;;6.20;4.03;;;18.40;97.20;;;;;;5093689;28;20052;-78
2023/07/24 06:01:36;;;;;;;5.50;3.53;;;18.40;97.20;;;;;;5076122;28;20025;-78
2023/07/24 06:04:02;;;;;;;5.90;3.75;;;18.40;97.00;;;;;;5092807;28;20040;-78
2023/07/24 06:06:28;;;;;;;6.20;3.67;;;18.40;96.90;;;;;;5092729;28;20185;-78
2023/07/24 06:08:53;;;;;;;6.47;3.40;;;18.40;96.90;;;;;;5093628;28;20021;-78
2023/07/24 06:11:20;;;;;;;5.72;3.35;;;18.40;97.00;;;;;;5092657;28;20031;-78
2023/07/24 06:13:46;;;;;;;5.82;3.10;;;18.50;96.90;;;;;;5092703;28;20084;-78
2023/07/24 06:16:13;;;;;;;7.15;3.90;;;18.50;96.90;;;;;;5093395;28;20031;-79
2023/07/24 06:18:39;;;;;;;5.22;3.28;;;18.40;96.70;;;;;;5092243;28;20012;-79
2023/07/24 06:21:05;;;;;;;6.18;3.80;;;18.40;97.00;;;;;;5091863;28;20051;-78
2023/07/24 06:23:30;;;;;;;6.75;3.85;;;18.40;96.80;;;;;;5093448;28;20032;-79
2023/07/24 06:25:56;;;;;;;6.78;3.67;;;18.40;96.90;;;;;;5092350;28;20033;-78
2023/07/24 06:28:21;;;;;;;6.88;4.30;;;18.30;97.00;;;;;;5092443;28;20058;-79
2023/07/24 06:30:47;;;;;;;8.32;4.70;;;18.20;97.20;;;;;;5092437;28;20033;-78
2023/07/24 06:33:13;;;;;;;8.45;4.10;;;18.30;97.30;;;;;;5075683;28;20042;-78
2023/07/24 06:35:38;;;;;;;8.57;4.00;;;18.30;97.60;;;;;;5092320;28;20043;-78
2023/07/24 06:38:04;;;;;;;7.32;4.45;;;18.40;97.60;;;;;;5075473;28;20059;-79
2023/07/24 06:40:30;;;;;;;20.13;5.00;;;18.40;97.50;;;;;;5093259;28;20077;-79
2023/07/24 06:42:56;;;;;;;9.23;5.95;;;18.40;97.60;;;;;;5093267;28;20029;-80
2023/07/24 06:45:22;;;;;;;11.80;5.18;;;18.40;97.70;;;;;;5092371;28;20028;-80
2023/07/24 06:47:47;;;;;;;10.40;4.65;;;18.50;97.70;;;;;;5093174;28;20067;-80
2023/07/24 06:50:13;;;;;;;11.40;5.40;;;18.60;97.70;;;;;;5093273;28;20040;-80
2023/07/24 06:52:38;;;;;;;8.75;5.68;;;18.60;97.60;;;;;;5092129;28;20031;-79
2023/07/24 06:55:05;;;;;;;8.82;5.32;;;18.60;97.40;;;;;;5092267;28;20031;-79
2023/07/24 06:57:30;;;;;;;8.00;4.60;;;18.60;97.20;;;;;;5092922;28;20056;-80
2023/07/24 06:59:56;;;;;;;9.43;4.97;;;18.70;97.30;;;;;;5075558;28;20048;-80
2023/07/24 07:02:21;;;;;;;8.98;5.10;;;18.70;97.40;;;;;;5093041;28;20116;-80
2023/07/24 07:04:47;;;;;;;8.60;5.05;;;18.80;97.30;;;;;;5075419;28;20021;-80
2023/07/24 07:07:12;;;;;;;10.25;5.43;;;18.90;97.40;;;;;;5092118;28;20107;-80
2023/07/24 07:09:38;;;;;;;8.48;4.88;;;18.90;97.50;;;;;;5092068;28;20029;-80
2023/07/24 07:12:04;;;;;;;10.43;5.80;;;18.90;97.30;;;;;;5092938;28;20499;-79
2023/07/24 07:14:30;;;;;;;12.15;5.47;;;18.90;96.70;;;;;;5091872;28;20033;-80
2023/07/24 07:16:55;;;;;;;10.80;5.85;;;19.00;96.80;;;;;;5092115;28;20043;-79
2023/07/24 07:19:21;;;;;;;12.77;6.30;;;19.00;96.60;;;;;;5075237;28;20072;-80
2023/07/24 07:21:46;;;;;;;11.52;5.85;;;18.90;96.00;;;;;;5091940;28;20028;-80
2023/07/24 07:24:12;;;;;;;12.60;6.15;;;18.80;96.50;;;;;;5092856;28;20082;-80
2023/07/24 07:26:37;;;;;;;13.38;6.55;;;18.90;96.70;;;;;;5092840;28;20040;-80
2023/07/24 07:29:03;;;;;;;11.63;6.18;;;18.90;96.50;;;;;;5091897;28;20021;-80
2023/07/24 07:31:29;;;;;;;12.85;6.05;;;18.90;96.60;;;;;;5093846;28;20522;-80
2023/07/24 07:33:54;;;;;;;11.45;6.00;;;18.90;96.80;;;;;;5095460;28;20029;-80
2023/07/24 07:36:22;;;;;;;12.20;6.45;;;19.00;96.80;;;;;;5078787;28;20391;-79
2023/07/24 07:38:48;;;;;;;14.00;6.40;;;19.00;97.00;;;;;;5096458;28;20016;-80
2023/07/24 07:41:13;;;;;;;13.25;6.93;;;19.10;96.90;;;;;;5096416;28;20020;-81
2023/07/24 07:43:39;;;;;;;15.95;7.40;;;19.10;96.80;;;;;;5095419;28;20039;-79
2023/07/24 07:46:05;;;;;;;14.82;6.97;;;19.10;96.70;;;;;;5095346;28;20025;-80
2023/07/24 07:48:30;;;;;;;12.60;7.90;;;19.00;96.50;;;;;;5095251;28;20036;-80
2023/07/24 07:50:56;;;;;;;17.65;8.18;;;19.00;96.20;;;;;;5095267;28;20028;-80
2023/07/24 07:53:22;;;;;;;13.98;7.80;;;19.00;96.10;;;;;;5095018;28;20100;-80
2023/07/24 07:55:56;;;;;;;15.43;8.02;;;19.10;96.30;;;;;;5095114;28;20028;-81
2023/07/24 07:58:23;;;;;;;14.30;7.75;;;19.10;96.10;;;;;;5095948;28;20111;-80
2023/07/24 08:00:48;;;;;;;15.60;7.85;;;19.10;96.10;;;;;;5094757;28;20029;-80
2023/07/24 08:03:14;;;;;;;14.52;7.65;;;19.10;96.00;;;;;;5095960;28;20056;-82
2023/07/24 08:05:39;;;;;;;14.45;8.32;;;19.10;96.30;;;;;;5095060;28;20054;-81
2023/07/24 08:08:05;;;;;;;14.93;8.25;;;19.20;96.30;;;;;;5094909;28;20033;-80
2023/07/24 08:10:30;;;;;;;16.33;7.93;;;19.10;96.30;;;;;;5095850;28;20028;-80
2023/07/24 08:12:56;;;;;;;14.68;7.85;;;19.10;96.50;;;;;;5077913;28;20024;-80
2023/07/24 08:15:22;;;;;;;10.02;6.15;;;19.20;96.50;;;;;;5095728;28;20107;-80
2023/07/24 08:17:47;;;;;;;11.30;6.43;;;19.10;96.30;;;;;;5094833;28;20025;-79
2023/07/24 08:20:13;;;;;;;9.63;5.28;;;19.10;96.30;;;;;;5094658;28;20020;-80
2023/07/24 08:22:39;;;;;;;8.40;5.20;;;19.10;96.50;;;;;;5094659;28;20028;-80
2023/07/24 08:25:05;;;;;;;7.65;4.57;;;19.10;96.40;;;;;;5094620;28;20048;-80
2023/07/24 08:27:30;;;;;;;8.13;4.53;;;19.10;96.30;;;;;;5094544;28;20032;-80
2023/07/24 08:29:56;;;;;;;6.63;3.58;;;19.10;96.30;;;;;;5094494;28;20030;-80
2023/07/24 08:32:22;;;;;;;7.43;3.90;;;19.20;95.90;;;;;;5095461;28;20104;-80
2023/07/24 08:34:47;;;;;;;7.60;4.10;;;19.20;95.80;;;;;;5094334;28;20088;-80
2023/07/24 08:37:13;;;;;;;8.98;3.85;;;19.20;95.50;;;;;;5077635;28;20030;-80
2023/07/24 08:39:38;;;;;;;7.45;3.80;;;19.20;95.30;;;;;;5095288;28;20032;-80
2023/07/24 08:42:14;;;;;;;12.52;3.78;;;19.20;95.40;;;;;;5093898;28;20111;-80
2023/07/24 08:44:41;;;;;;;8.25;4.45;;;19.20;95.30;;;;;;5094149;28;20021;-80
2023/07/24 08:47:11;;;;;;;6.93;4.20;;;19.30;95.10;;;;;;5095189;28;20058;-81
2023/07/24 08:49:40;;;;;;;6.85;4.00;;;19.40;95.10;;;;;;5094101;28;20028;-82
2023/07/24 08:52:07;;;;;;;6.32;3.72;;;19.40;93.80;;;;;;5095082;28;20020;-81
2023/07/24 08:54:35;;;;;;;7.05;4.00;;;19.40;94.10;;;;;;5093983;28;20039;-80
2023/07/24 08:57:05;;;;;;;6.10;3.75;;;19.50;94.40;;;;;;5093882;28;20033;-80
2023/07/24 08:59:31;;;;;;;7.07;3.80;;;19.50;93.20;;;;;;5094882;28;20062;-81
2023/07/24 09:01:57;;;;;;;5.82;4.30;;;19.50;93.70;;;;;;5094038;28;20024;-81
2023/07/24 09:04:23;;;;;;;10.18;4.65;;;19.50;93.70;;;;;;5093889;28;20043;-79
2023/07/24 09:06:50;;;;;;;7.30;4.63;;;19.60;93.80;;;;;;5094771;28;20029;-79
2023/07/24 09:09:16;;;;;;;7.57;4.68;;;19.60;93.60;;;;;;5094786;28;20052;-80
2023/07/24 09:11:53;;;;;;;7.60;4.90;;;19.70;93.00;;;;;;5093619;28;20054;-81
2023/07/24 09:14:26;;;;;;;7.38;5.05;;;19.70;93.00;;;;;;5094657;28;20035;-80
2023/07/24 09:17:08;;;;;;;8.07;5.32;;;19.60;92.90;;;;;;5094531;28;20036;-79
2023/07/24 09:19:34;;;;;;;9.88;6.45;;;19.70;92.80;;;;;;5093537;28;20028;-79
2023/07/24 09:22:16;;;;;;;14.57;5.85;;;19.70;93.20;;;;;;5094455;28;20373;-80
2023/07/24 09:24:56;;;;;;;8.52;5.82;;;19.70;92.60;;;;;;5094332;28;20052;-79
2023/07/24 09:27:26;;;;;;;9.45;6.20;;;19.60;92.80;;;;;;5093286;28;20024;-79
2023/07/24 09:29:52;;;;;;;8.15;5.78;;;19.60;92.60;;;;;;5094282;28;20058;-78
2023/07/24 09:32:23;;;;;;;12.32;6.82;;;19.80;93.10;;;;;;5094384;28;20028;-79
2023/07/24 09:34:54;;;;;;;10.10;6.25;;;19.90;93.00;;;;;;5094031;28;20054;-80
2023/07/24 09:37:27;;;;;;;10.02;6.45;;;20.00;93.10;;;;;;5093292;28;20089;-80
2023/07/24 09:39:53;;;;;;;10.48;6.13;;;20.10;92.60;;;;;;5093156;28;20115;-81
2023/07/24 09:42:26;;;;;;;9.57;6.40;;;20.20;92.70;;;;;;5093013;28;20484;-79
2023/07/24 09:44:52;;;;;;;10.52;6.55;;;20.30;92.50;;;;;;5093033;28;20044;-79
2023/07/24 09:47:18;;;;;;;9.40;6.38;;;20.50;92.80;;;;;;5093067;28;20036;-79
2023/07/24 09:49:47;;;;;;;9.50;5.93;;;20.70;92.00;;;;;;5093906;28;20029;-79
2023/07/24 09:52:14;;;;;;;8.27;5.72;;;20.60;90.50;;;;;;5093862;28;20059;-78
2023/07/24 09:55:10;;;;;;;8.80;5.93;;;20.60;91.60;;;;;;5092827;28;20051;-79
2023/07/24 09:57:37;;;;;;;9.07;5.22;;;20.70;91.40;;;;;;5090527;28;20041;-80
2023/07/24 10:00:03;;;;;;;8.10;5.20;;;20.80;91.60;;;;;;5093899;28;20021;-81
2023/07/24 10:02:31;;;;;;;7.60;5.30;;;20.70;90.70;;;;;;5092646;28;20119;-79
2023/07/24 10:04:57;;;;;;;8.32;5.78;;;20.70;90.40;;;;;;5092746;28;20028;-79
2023/07/24 10:07:24;;;;;;;10.35;5.78;;;20.60;90.60;;;;;;5092638;28;20043;-79
2023/07/24 10:09:50;;;;;;;8.70;5.95;;;20.60;90.90;;;;;;5075911;28;20025;-79
2023/07/24 10:12:20;;;;;;;9.75;6.32;;;20.60;90.90;;;;;;5093606;28;20016;-79
2023/07/24 10:14:47;;;;;;;10.05;6.47;;;20.60;91.10;;;;;;5076005;28;20024;-79
2023/07/24 10:17:13;;;;;;;8.13;5.82;;;20.60;91.10;;;;;;5092592;28;20041;-79
2023/07/24 10:19:45;;;;;;;7.03;5.55;;;20.70;91.30;;;;;;5093624;28;20035;-76
2023/07/24 10:22:19;;;;;;;8.32;5.53;;;20.70;91.10;;;;;;5093412;28;20020;-77
2023/07/24 10:24:45;;;;;;;8.57;5.53;;;20.70;90.80;;;;;;5093465;28;20056;-77
2023/07/24 10:27:11;;;;;;;7.32;4.90;;;20.60;90.80;;;;;;5092313;28;20043;-77
2023/07/24 10:29:37;;;;;;;8.57;4.78;;;20.60;91.00;;;;;;5092361;28;20017;-77
2023/07/24 10:32:03;;;;;;;7.25;3.95;;;20.60;91.10;;;;;;5093331;28;20124;-77
2023/07/24 10:34:40;;;;;;;7.90;4.60;;;20.50;90.80;;;;;;5075551;28;20047;-78
2023/07/24 10:37:09;;;;;;;8.98;4.85;;;20.50;90.70;;;;;;5075617;28;20047;-78
2023/07/24 10:39:40;;;;;;;6.05;4.25;;;20.50;90.90;;;;;;5092210;28;20028;-77
2023/07/24 10:42:10;;;;;;;6.68;4.53;;;20.50;90.80;;;;;;5092198;28;20049;-78
2023/07/24 10:44:37;;;;;;;7.82;4.55;;;20.40;90.60;;;;;;5092246;28;20530;-77
2023/07/24 10:47:03;;;;;;;7.55;4.80;;;20.30;90.50;;;;;;5092162;28;20025;-76
2023/07/24 10:49:29;;;;;;;6.55;4.57;;;20.30;90.50;;;;;;5075405;28;20471;-77
2023/07/24 10:51:58;;;;;;;7.75;5.05;;;20.30;90.60;;;;;;5093176;28;20058;-77
2023/07/24 10:54:24;;;;;;;7.50;5.25;;;20.30;90.90;;;;;;5092166;28;20088;-77
2023/07/24 10:56:49;;;;;;;7.28;5.13;;;20.10;90.50;;;;;;5075418;28;20029;-77
2023/07/24 10:59:15;;;;;;;7.40;4.85;;;20.00;90.60;;;;;;5092161;28;20044;-77
2023/07/24 11:01:41;;;;;;;6.22;4.55;;;20.00;90.80;;;;;;5092136;28;20048;-77
2023/07/24 11:04:07;;;;;;;9.38;5.22;;;20.00;90.90;;;;;;5093068;28;20029;-77
2023/07/24 11:06:33;;;;;;;7.65;5.15;;;20.10;91.10;;;;;;5094547;28;20055;-77
2023/07/24 11:09:00;;;;;;;6.70;4.90;;;20.10;91.30;;;;;;5097041;28;20025;-77
2023/07/24 11:11:33;;;;;;;11.32;5.32;;;20.20;91.40;;;;;;5096048;28;20536;-78
2023/07/24 11:14:01;;;;;;;10.73;5.10;;;20.30;91.40;;;;;;5096887;28;20496;-80
2023/07/24 11:16:27;;;;;;;8.00;4.20;;;20.30;91.50;;;;;;5095930;28;20028;-80
2023/07/24 11:18:52;;;;;;;10.55;4.53;;;20.20;91.00;;;;;;5079214;28;20025;-80
2023/07/24 11:21:18;;;;;;;10.07;4.68;;;20.20;90.80;;;;;;5096842;28;20112;-80
2023/07/24 11:23:53;;;;;;;7.07;3.97;;;20.20;91.30;;;;;;5096791;28;20035;-81
2023/07/24 11:26:23;;;;;;;6.53;3.90;;;20.30;91.40;;;;;;5095661;28;20035;-81
2023/07/24 11:28:50;;;;;;;9.30;3.95;;;20.30;91.00;;;;;;5096665;28;20032;-79
2023/07/24 11:31:19;;;;;;;8.15;3.65;;;20.20;90.90;;;;;;5096601;28;20051;-80
2023/07/24 11:33:45;;;;;;;7.20;3.95;;;20.20;91.30;;;;;;5095495;28;20086;-80
2023/07/24 11:36:11;;;;;;;5.70;3.67;;;20.30;91.30;;;;;;5096523;28;20031;-80
2023/07/24 11:38:38;;;;;;;7.55;3.97;;;20.30;91.00;;;;;;5096511;28;20017;-80
2023/07/24 11:41:04;;;;;;;6.90;4.28;;;20.30;91.10;;;;;;5095482;28;20021;-81
2023/07/24 11:43:30;;;;;;;7.97;4.63;;;20.30;91.10;;;;;;5096541;28;20051;-81
2023/07/24 11:45:56;;;;;;;11.65;4.57;;;20.30;90.70;;;;;;5096375;28;20080;-80
2023/07/24 11:48:24;;;;;;;5.13;3.60;;;20.30;91.10;;;;;;5078676;28;20031;-80
2023/07/24 11:50:52;;;;;;;7.28;3.90;;;20.30;90.30;;;;;;5096221;28;20028;-80
2023/07/24 11:53:23;;;;;;;5.93;4.13;;;20.30;91.10;;;;;;5095210;28;20084;-80
2023/07/24 11:55:51;;;;;;;6.77;4.53;;;20.40;91.00;;;;;;5095133;28;20111;-80
2023/07/24 11:58:17;;;;;;;7.60;4.53;;;20.50;91.20;;;;;;5095011;28;20381;-80
2023/07/24 12:00:43;;;;;;;6.82;4.28;;;20.60;90.80;;;;;;5078402;28;20092;-80
2023/07/24 12:03:09;;;;;;;7.20;4.70;;;20.70;90.30;;;;;;5094968;28;20025;-81
2023/07/24 12:05:42;;;;;;;7.00;4.70;;;20.60;89.70;;;;;;5095215;28;20021;-80
2023/07/24 12:08:08;;;;;;;7.85;4.60;;;20.60;90.00;;;;;;5095959;28;20032;-81
2023/07/24 12:10:39;;;;;;;7.13;4.47;;;20.70;90.40;;;;;;5095873;28;20035;-81
2023/07/24 12:13:05;;;;;;;9.52;4.82;;;20.70;90.00;;;;;;5095861;28;20035;-81
2023/07/24 12:15:31;;;;;;;8.32;5.47;;;20.70;89.70;;;;;;5094898;28;20080;-80
2023/07/24 12:17:57;;;;;;;9.05;5.80;;;20.80;89.40;;;;;;5093829;28;20028;-81
2023/07/24 12:20:23;;;;;;;6.57;5.00;;;20.80;89.50;;;;;;5094831;28;20021;-82
2023/07/24 12:22:49;;;;;;;8.88;5.78;;;20.90;88.80;;;;;;5094892;28;20408;-82
2023/07/24 12:25:15;;;;;;;8.63;5.25;;;20.90;88.40;;;;;;5094599;28;20024;-82
2023/07/24 12:27:42;;;;;;;7.03;4.95;;;21.00;89.30;;;;;;5094587;28;20020;-81
2023/07/24 12:30:08;;;;;;;8.95;5.80;;;21.10;90.00;;;;;;5094602;28;20017;-81
2023/07/24 12:32:35;;;;;;;7.95;5.40;;;21.20;88.50;;;;;;5094498;28;20032;-80
2023/07/24 12:35:00;;;;;;;7.57;5.13;;;21.30;88.90;;;;;;5095317;28;20055;-80
2023/07/24 12:37:26;;;;;;;10.93;5.88;;;21.40;88.10;;;;;;5094535;28;20028;-80
2023/07/24 12:39:52;;;;;;;8.82;5.78;;;21.60;87.30;;;;;;5095348;28;20021;-81
2023/07/24 12:42:17;;;;;;;9.70;5.68;;;21.70;86.90;;;;;;5094368;28;20031;-80